ABX weather

Albury Airport
Albury, New South Wales, Australia

Public forecast

Using degrees Celsius for public forecast. Weather courtesy of forecast.io.

METAR (pilot weather report)

Retrieved 2017/05/25 12:00 UTC (8 minutes ago):

YMAY 251200Z AUTO 00000KT 9999 // BKN038 OVC055 11/10 Q1022

TAF (pilot weather forecast)

Forecast is more than 12 hours old.

Closest forecast is Wangaratta Airport, 37.8 nm (70.0 km) WSW. Retrieved 2017/05/24 20:33 UTC (16 hours ago):

TAF YWGT 241901Z 2420/2508 VRB03KT 0500 FG BKN002 FM250000 VRB05KT 9999 SCT010 FM250200 32006KT 9999 BKN040 INTER 2500/2502 BKN010 PROB30 2500/2501 0500 FG BKN002